createdAt,value
2023-01-09T00:01:36.611Z,7.49
2023-01-09T00:04:38.852Z,7.54
2023-01-09T00:07:41.189Z,7.50
2023-01-09T00:10:43.435Z,7.44
2023-01-09T00:13:45.688Z,7.35
2023-01-09T00:16:47.957Z,7.37
2023-01-09T00:19:50.190Z,7.32
2023-01-09T00:22:52.430Z,7.30
2023-01-09T00:26:17.745Z,7.13
2023-01-09T00:29:20.099Z,7.15
2023-01-09T00:32:22.312Z,7.23
2023-01-09T00:35:25.981Z,7.27
2023-01-09T00:38:28.270Z,7.40
2023-01-09T00:41:37.121Z,7.43
2023-01-09T00:44:47.753Z,7.44
2023-01-09T00:47:52.646Z,7.47
2023-01-09T00:50:58.669Z,7.52
2023-01-09T00:54:03.040Z,7.70
2023-01-09T00:57:05.413Z,7.83
2023-01-09T01:00:09.547Z,7.81
2023-01-09T01:03:12.038Z,7.88
2023-01-09T01:06:32.737Z,7.75
2023-01-09T01:09:34.977Z,7.74
2023-01-09T01:12:38.337Z,7.63
2023-01-09T01:15:41.994Z,7.64
2023-01-09T01:18:44.252Z,7.70
2023-01-09T01:21:46.488Z,7.67
2023-01-09T01:24:48.796Z,7.63
2023-01-09T01:27:51.648Z,7.62
2023-01-09T01:30:53.944Z,7.70
2023-01-09T01:33:57.555Z,7.69
2023-01-09T01:37:02.625Z,7.62
2023-01-09T01:40:07.393Z,7.63
2023-01-09T01:43:12.398Z,7.67
2023-01-09T01:46:17.368Z,7.66
2023-01-09T01:49:20.571Z,7.69
2023-01-09T01:52:24.637Z,7.69
2023-01-09T01:55:27.076Z,7.62
2023-01-09T01:58:30.510Z,7.54
2023-01-09T02:01:38.462Z,7.46
2023-01-09T02:04:40.981Z,7.36
2023-01-09T02:07:43.221Z,7.36
2023-01-09T02:10:46.073Z,7.33
2023-01-09T02:13:48.937Z,7.25
2023-01-09T02:17:14.257Z,7.16
2023-01-09T02:20:19.482Z,7.01
2023-01-09T02:23:33.715Z,6.81
2023-01-09T02:26:57.477Z,6.63
2023-01-09T02:30:14.817Z,6.44
2023-01-09T02:33:26.056Z,6.41
2023-01-09T02:36:33.676Z,6.41
2023-01-09T02:39:59.589Z,6.38
2023-01-09T02:43:02.444Z,6.30
2023-01-09T02:46:04.943Z,6.29
2023-01-09T02:49:07.960Z,6.20
2023-01-09T02:52:16.075Z,6.17
2023-01-09T02:55:42.823Z,6.17
2023-01-09T02:58:50.416Z,6.14
2023-01-09T03:01:52.678Z,6.16
2023-01-09T03:05:08.970Z,6.14
2023-01-09T03:08:24.696Z,6.12
2023-01-09T03:11:30.776Z,6.00
2023-01-09T03:14:33.939Z,5.92
2023-01-09T03:17:39.751Z,5.89
2023-01-09T03:20:43.432Z,5.90
2023-01-09T03:23:47.777Z,5.98
2023-01-09T03:26:50.621Z,6.06
2023-01-09T03:29:53.470Z,6.16
2023-01-09T03:32:56.502Z,6.14
2023-01-09T03:35:58.794Z,6.17
2023-01-09T03:39:01.004Z,6.20
2023-01-09T03:42:03.293Z,6.34
2023-01-09T03:45:06.443Z,6.34
2023-01-09T03:48:08.757Z,6.38
2023-01-09T03:51:10.984Z,6.45
2023-01-09T03:54:13.560Z,6.45
2023-01-09T03:57:15.761Z,6.51
2023-01-09T04:00:18.932Z,6.41
2023-01-09T04:03:21.315Z,6.47
2023-01-09T04:06:23.598Z,6.44
2023-01-09T04:09:26.040Z,6.50
2023-01-09T04:12:28.273Z,6.48
2023-01-09T04:15:30.511Z,6.41
2023-01-09T04:18:32.711Z,6.37
2023-01-09T04:21:34.911Z,6.26
2023-01-09T04:24:37.166Z,6.23
2023-01-09T04:27:39.396Z,6.23
2023-01-09T04:30:44.585Z,6.13
2023-01-09T04:33:47.198Z,6.06
2023-01-09T04:36:49.422Z,6.03
2023-01-09T04:39:54.918Z,6.03
2023-01-09T04:42:57.119Z,5.98
2023-01-09T04:45:59.380Z,5.90
2023-01-09T04:49:01.677Z,5.83
2023-01-09T04:52:04.068Z,5.82
2023-01-09T04:55:07.624Z,5.73
2023-01-09T04:58:09.910Z,5.63
2023-01-09T05:01:12.997Z,5.61
2023-01-09T05:04:15.417Z,5.58
2023-01-09T05:07:17.668Z,5.54
2023-01-09T05:10:19.905Z,5.49
2023-01-09T05:13:22.164Z,5.54
2023-01-09T05:16:24.480Z,5.54
2023-01-09T05:19:26.700Z,5.47
2023-01-09T05:22:28.935Z,5.54
2023-01-09T05:25:31.246Z,5.61
2023-01-09T05:28:33.569Z,5.68
2023-01-09T05:31:35.840Z,5.73
2023-01-09T05:34:38.033Z,5.72
2023-01-09T05:37:40.225Z,5.79
2023-01-09T05:40:42.431Z,5.68
2023-01-09T05:43:44.632Z,5.62
2023-01-09T05:46:46.873Z,5.63
2023-01-09T05:49:49.072Z,5.58
2023-01-09T05:52:51.319Z,5.68
2023-01-09T05:55:53.654Z,5.83
2023-01-09T05:58:55.909Z,5.88
2023-01-09T06:02:00.628Z,5.83
2023-01-09T06:05:03.012Z,6.02
2023-01-09T06:08:05.413Z,6.14
2023-01-09T06:11:07.692Z,6.02
2023-01-09T06:14:09.907Z,5.95
2023-01-09T06:17:12.273Z,5.98
2023-01-09T06:20:17.186Z,5.82
2023-01-09T06:23:19.393Z,5.86
2023-01-09T06:26:21.951Z,5.72
2023-01-09T06:29:27.232Z,5.61
2023-01-09T06:32:29.519Z,5.61
2023-01-09T06:35:31.792Z,5.62
2023-01-09T06:38:34.085Z,5.63
2023-01-09T06:41:37.242Z,5.69
2023-01-09T06:44:39.520Z,5.69
2023-01-09T06:47:41.765Z,5.75
2023-01-09T06:50:44.626Z,5.83
2023-01-09T06:53:47.057Z,5.79
2023-01-09T06:56:49.470Z,5.78
2023-01-09T06:59:54.546Z,5.76
2023-01-09T07:02:57.022Z,5.71
2023-01-09T07:05:59.301Z,5.88
2023-01-09T07:09:01.727Z,5.89
2023-01-09T07:12:04.799Z,5.85
2023-01-09T07:15:07.843Z,5.88
2023-01-09T07:18:13.089Z,5.72
2023-01-09T07:21:15.616Z,5.61
2023-01-09T07:24:18.010Z,5.59
2023-01-09T07:27:20.383Z,5.61
2023-01-09T07:30:22.744Z,5.56
2023-01-09T07:33:25.053Z,5.51
2023-01-09T07:36:27.457Z,5.49
2023-01-09T07:39:29.766Z,5.42
2023-01-09T07:42:35.141Z,5.41
2023-01-09T07:45:37.480Z,5.32
2023-01-09T07:48:39.812Z,5.31
2023-01-09T07:51:45.815Z,5.35
2023-01-09T07:54:48.111Z,5.30
2023-01-09T07:57:51.756Z,5.30
2023-01-09T08:00:54.722Z,5.34
2023-01-09T08:03:57.070Z,5.30
2023-01-09T08:07:03.804Z,5.32
2023-01-09T08:10:09.277Z,5.34
2023-01-09T08:13:11.754Z,5.30
2023-01-09T08:16:14.174Z,5.38
2023-01-09T08:19:21.315Z,5.40
2023-01-09T08:22:26.870Z,5.42
2023-01-09T08:25:29.737Z,5.47
2023-01-09T08:28:35.602Z,5.51
2023-01-09T08:31:38.087Z,5.49
2023-01-09T08:34:40.454Z,5.58
2023-01-09T08:37:47.328Z,5.59
2023-01-09T08:40:51.620Z,5.68
2023-01-09T08:44:15.224Z,5.68
2023-01-09T08:47:25.430Z,5.72
2023-01-09T08:50:27.617Z,5.80
2023-01-09T08:53:34.546Z,5.89
2023-01-09T08:56:48.030Z,5.96
2023-01-09T08:59:50.377Z,6.03
2023-01-09T09:02:53.591Z,6.06
2023-01-09T09:05:55.881Z,6.21
2023-01-09T09:09:03.099Z,6.27
2023-01-09T09:12:05.993Z,6.30
2023-01-09T09:15:24.327Z,6.37
2023-01-09T09:18:26.659Z,6.43
2023-01-09T09:21:28.873Z,6.48
2023-01-09T09:24:31.171Z,6.44
2023-01-09T09:27:33.993Z,6.43
2023-01-09T09:30:38.373Z,6.54
2023-01-09T09:33:50.951Z,6.60
2023-01-09T09:36:53.353Z,6.63
2023-01-09T09:39:56.795Z,6.72
2023-01-09T09:43:43.425Z,6.88
2023-01-09T09:47:23.425Z,6.87
2023-01-09T09:50:49.490Z,6.95
2023-01-09T09:53:56.965Z,7.01
2023-01-09T09:57:04.558Z,7.08
2023-01-09T10:00:19.305Z,7.08
2023-01-09T10:03:48.946Z,7.15
2023-01-09T10:06:56.523Z,7.16
2023-01-09T10:10:10.621Z,7.16
2023-01-09T10:13:36.476Z,7.12
2023-01-09T10:17:14.211Z,7.16
2023-01-09T10:20:31.588Z,7.12
2023-01-09T10:23:47.336Z,7.20
2023-01-09T10:26:54.175Z,7.27
2023-01-09T10:30:05.103Z,7.33
2023-01-09T10:33:16.472Z,7.33
2023-01-09T10:36:24.648Z,7.29
2023-01-09T10:39:42.803Z,7.30
2023-01-09T10:42:50.617Z,7.33
2023-01-09T10:45:58.389Z,7.40
2023-01-09T10:49:11.300Z,7.44
2023-01-09T10:52:30.124Z,7.62
2023-01-09T10:55:49.382Z,7.73
2023-01-09T10:58:53.985Z,7.88
2023-01-09T11:01:56.456Z,8.02
2023-01-09T11:05:01.188Z,8.11
2023-01-09T11:08:13.923Z,8.16
2023-01-09T11:11:35.047Z,8.20
2023-01-09T11:14:37.531Z,8.26
2023-01-09T11:17:42.513Z,8.26
2023-01-09T11:20:45.280Z,8.44
2023-01-09T11:23:47.540Z,8.53
2023-01-09T11:26:54.193Z,8.75
2023-01-09T11:30:16.789Z,9.00
2023-01-09T11:33:24.630Z,9.08
2023-01-09T11:36:28.551Z,9.07
2023-01-09T11:39:33.223Z,9.13
2023-01-09T11:42:53.687Z,9.16
2023-01-09T11:46:01.509Z,9.23
2023-01-09T11:49:16.777Z,9.28
2023-01-09T11:52:22.189Z,9.42
2023-01-09T11:55:29.315Z,9.39
2023-01-09T11:58:35.356Z,9.39
2023-01-09T12:01:56.522Z,9.37
2023-01-09T12:05:06.257Z,9.32
2023-01-09T12:08:50.321Z,9.26
2023-01-09T12:12:17.559Z,9.17
2023-01-09T12:15:43.597Z,9.08
2023-01-09T12:18:54.974Z,8.97
2023-01-09T12:22:18.149Z,9.00
2023-01-09T12:25:38.261Z,9.01
2023-01-09T12:28:52.201Z,8.96
2023-01-09T12:32:34.899Z,8.93
2023-01-09T12:35:49.416Z,9.10
2023-01-09T12:38:59.475Z,9.07
2023-01-09T12:42:24.822Z,9.08
2023-01-09T12:45:32.934Z,8.99
2023-01-09T12:48:47.275Z,9.01
2023-01-09T12:52:06.236Z,9.06
2023-01-09T12:55:27.201Z,9.11
2023-01-09T12:58:36.751Z,9.07
2023-01-09T13:01:45.368Z,9.10
2023-01-09T13:05:01.217Z,9.08
2023-01-09T13:08:20.497Z,9.10
2023-01-09T13:11:32.230Z,9.11
2023-01-09T13:14:48.967Z,9.17
2023-01-09T13:17:54.713Z,9.06
2023-01-09T13:20:57.439Z,9.04
2023-01-09T13:24:20.400Z,9.08
2023-01-09T13:27:24.884Z,9.06
2023-01-09T13:31:12.436Z,8.99
2023-01-09T13:34:22.538Z,9.06
2023-01-09T13:37:30.728Z,9.01
2023-01-09T13:40:34.780Z,9.04
2023-01-09T13:43:58.981Z,9.06
2023-01-09T13:47:03.418Z,8.99
2023-01-09T13:50:05.655Z,9.03
2023-01-09T13:53:19.869Z,9.06
2023-01-09T13:56:23.962Z,9.01
2023-01-09T13:59:28.698Z,8.96
2023-01-09T14:02:34.080Z,8.89
2023-01-09T14:05:36.350Z,8.81
2023-01-09T14:08:41.975Z,8.84
2023-01-09T14:11:44.421Z,8.89
2023-01-09T14:14:47.402Z,8.84
2023-01-09T14:18:02.748Z,8.81
2023-01-09T14:24:22.942Z,8.69
2023-01-09T14:27:55.884Z,8.66
2023-01-09T14:30:58.051Z,8.66
2023-01-09T14:34:36.017Z,8.60
2023-01-09T14:37:40.939Z,8.57
2023-01-09T14:41:17.625Z,8.55
2023-01-09T14:44:29.648Z,8.56
2023-01-09T14:47:31.841Z,8.53
2023-01-09T14:50:39.023Z,8.50
2023-01-09T14:53:42.826Z,8.48
2023-01-09T14:56:47.871Z,8.50
2023-01-09T15:00:03.207Z,8.46
2023-01-09T15:03:05.529Z,8.46
2023-01-09T15:06:14.442Z,8.48
2023-01-09T15:09:45.389Z,8.48
2023-01-09T15:12:50.361Z,8.50
2023-01-09T15:15:52.753Z,8.53
2023-01-09T15:19:04.915Z,8.60
2023-01-09T15:22:34.234Z,8.56
2023-01-09T15:25:39.924Z,8.57
2023-01-09T15:28:43.961Z,8.50
2023-01-09T15:31:51.917Z,8.42
2023-01-09T15:34:55.345Z,8.41
2023-01-09T15:37:58.436Z,8.35
2023-01-09T15:41:07.198Z,8.34
2023-01-09T15:44:28.100Z,8.31
2023-01-09T15:47:32.657Z,8.31
2023-01-09T15:50:34.929Z,8.25
2023-01-09T15:53:37.537Z,8.25
2023-01-09T15:56:39.875Z,8.21
2023-01-09T15:59:42.066Z,8.21
2023-01-09T16:03:04.951Z,8.15
2023-01-09T16:06:10.906Z,8.15
2023-01-09T16:09:27.087Z,8.15
2023-01-09T16:12:29.426Z,8.11
2023-01-09T16:15:34.748Z,8.01
2023-01-09T16:18:39.394Z,7.98
2023-01-09T16:21:41.809Z,7.93
2023-01-09T16:24:44.007Z,7.88
2023-01-09T16:28:26.843Z,7.94
2023-01-09T16:31:30.589Z,7.90
2023-01-09T16:34:36.526Z,7.90
2023-01-09T16:37:40.257Z,7.83
2023-01-09T16:41:23.976Z,7.80
2023-01-09T16:44:26.860Z,7.81
2023-01-09T16:47:29.086Z,7.78
2023-01-09T16:50:31.395Z,7.74
2023-01-09T16:53:33.656Z,7.77
2023-01-09T16:56:36.649Z,7.73
2023-01-09T16:59:38.922Z,7.70
2023-01-09T17:02:41.132Z,7.73
2023-01-09T17:05:43.850Z,7.67
2023-01-09T17:08:46.981Z,7.62
2023-01-09T17:11:49.197Z,7.62
2023-01-09T17:14:51.522Z,7.56
2023-01-09T17:17:53.717Z,7.54
2023-01-09T17:20:57.617Z,7.49
2023-01-09T17:24:18.383Z,7.50
2023-01-09T17:27:45.256Z,7.49
2023-01-09T17:30:47.571Z,7.52
2023-01-09T17:33:50.272Z,7.64
2023-01-09T17:36:55.582Z,7.66
2023-01-09T17:40:01.226Z,7.66
2023-01-09T17:43:03.606Z,7.71
2023-01-09T17:46:06.189Z,7.69
2023-01-09T17:49:15.604Z,7.67
2023-01-09T17:52:17.856Z,7.73
2023-01-09T17:55:20.280Z,7.71
2023-01-09T17:58:30.309Z,7.73
2023-01-09T18:01:32.681Z,7.77
2023-01-09T18:04:38.502Z,7.88
2023-01-09T18:07:40.737Z,7.78
2023-01-09T18:10:44.634Z,7.66
2023-01-09T18:13:48.337Z,7.47
2023-01-09T18:16:50.616Z,7.53
2023-01-09T18:19:52.862Z,7.63
2023-01-09T18:22:55.195Z,7.60
2023-01-09T18:25:57.406Z,7.64
2023-01-09T18:29:00.652Z,7.62
2023-01-09T18:32:03.038Z,7.60
2023-01-09T18:35:05.729Z,7.62
2023-01-09T18:38:08.388Z,7.62
2023-01-09T18:41:10.687Z,7.64
2023-01-09T18:44:13.081Z,7.62
2023-01-09T18:47:15.413Z,7.66
2023-01-09T18:50:17.793Z,7.78
2023-01-09T18:53:20.009Z,7.69
2023-01-09T18:56:23.355Z,7.60
2023-01-09T18:59:25.588Z,7.66
2023-01-09T19:02:27.838Z,7.69
2023-01-09T19:05:32.527Z,7.57
2023-01-09T19:08:36.268Z,7.60
2023-01-09T19:11:38.523Z,7.60
2023-01-09T19:14:40.778Z,7.56
2023-01-09T19:17:42.973Z,7.54
2023-01-09T19:20:45.185Z,7.49
2023-01-09T19:23:48.587Z,7.49
2023-01-09T19:26:51.254Z,7.49
2023-01-09T19:29:53.498Z,7.43
2023-01-09T19:32:55.847Z,7.35
2023-01-09T19:35:58.131Z,7.40
2023-01-09T19:39:01.963Z,7.52
2023-01-09T19:42:04.240Z,7.49
2023-01-09T19:45:07.239Z,7.43
2023-01-09T19:48:09.440Z,7.40
2023-01-09T19:51:13.229Z,7.46
2023-01-09T19:54:15.461Z,7.47
2023-01-09T19:57:17.727Z,7.37
2023-01-09T20:00:21.072Z,7.44
2023-01-09T20:03:25.726Z,7.44
2023-01-09T20:06:27.946Z,7.42
2023-01-09T20:09:30.345Z,7.40
2023-01-09T20:12:32.699Z,7.46
2023-01-09T20:15:35.049Z,7.37
2023-01-09T20:18:37.377Z,7.32
2023-01-09T20:21:40.211Z,7.36
2023-01-09T20:24:42.564Z,7.19
2023-01-09T20:27:44.816Z,7.25
2023-01-09T20:30:48.963Z,7.35
2023-01-09T20:33:51.416Z,7.33
2023-01-09T20:36:54.700Z,7.29
2023-01-09T20:39:57.076Z,7.35
2023-01-09T20:43:06.461Z,7.25
2023-01-09T20:46:09.406Z,7.30
2023-01-09T20:49:18.630Z,7.29
2023-01-09T20:52:22.620Z,7.18
2023-01-09T20:55:24.845Z,7.23
2023-01-09T20:58:28.650Z,7.27
2023-01-09T21:01:38.866Z,7.33
2023-01-09T21:04:41.094Z,7.25
2023-01-09T21:07:49.481Z,7.32
2023-01-09T21:10:57.374Z,7.35
2023-01-09T21:14:00.028Z,7.27
2023-01-09T21:17:02.305Z,7.29
2023-01-09T21:20:11.203Z,7.26
2023-01-09T21:23:13.429Z,7.18
2023-01-09T21:26:16.993Z,7.16
2023-01-09T21:29:19.254Z,7.20
2023-01-09T21:32:22.130Z,7.08
2023-01-09T21:35:24.365Z,7.06
2023-01-09T21:38:27.154Z,7.05
2023-01-09T21:41:47.997Z,7.08
2023-01-09T21:45:08.739Z,7.09
2023-01-09T21:48:12.186Z,7.12
2023-01-09T21:51:14.420Z,7.09
2023-01-09T21:54:16.704Z,7.19
2023-01-09T21:57:18.949Z,7.19
2023-01-09T22:00:21.339Z,7.23
2023-01-09T22:03:23.576Z,7.20
2023-01-09T22:06:26.033Z,7.26
2023-01-09T22:09:28.225Z,7.19
2023-01-09T22:12:30.533Z,7.15
2023-01-09T22:15:32.772Z,7.12
2023-01-09T22:18:36.417Z,6.98
2023-01-09T22:21:38.720Z,6.98
2023-01-09T22:24:40.971Z,7.01
2023-01-09T22:27:43.955Z,6.96
2023-01-09T22:30:46.227Z,6.95
2023-01-09T22:33:57.855Z,6.96
2023-01-09T22:37:00.212Z,6.99
2023-01-09T22:40:02.474Z,7.08
2023-01-09T22:43:05.247Z,7.03
2023-01-09T22:46:11.161Z,6.95
2023-01-09T22:49:14.231Z,7.01
2023-01-09T22:52:16.484Z,7.02
2023-01-09T22:55:18.705Z,7.01
2023-01-09T22:58:20.932Z,7.06
2023-01-09T23:01:23.093Z,7.06
2023-01-09T23:04:25.293Z,7.15
2023-01-09T23:07:27.722Z,7.09
2023-01-09T23:10:29.938Z,7.06
2023-01-09T23:13:32.374Z,6.96
2023-01-09T23:16:34.679Z,6.94
2023-01-09T23:19:37.653Z,6.95
2023-01-09T23:22:39.944Z,7.02
2023-01-09T23:25:50.953Z,6.94
2023-01-09T23:28:53.213Z,6.98
2023-01-09T23:31:55.817Z,6.91
2023-01-09T23:34:58.417Z,6.74
2023-01-09T23:38:00.831Z,6.68
2023-01-09T23:41:03.098Z,6.74
2023-01-09T23:44:05.336Z,6.81
2023-01-09T23:47:07.655Z,6.89
2023-01-09T23:50:10.906Z,6.92
2023-01-09T23:53:13.117Z,6.88
2023-01-09T23:56:15.330Z,6.94
2023-01-09T23:59:18.191Z,6.92
